ěÝzenÝ letovÚho provozu ╚eskÚ republiky
Letiste: LKBC Aktualizace: 07.07.2020 14:26:24  UTC
 METAR LKBC 07.07. 14:30 ...
METAR LKBC 071430Z AUTO 29008KT 260V330 9999 BKN072 18/05 Q1019=